Girolata — FPOD — position and weather

sailwx.info

Track history (hours):
 
Tides and Currents Weather Stations Pressure Air Temp Water Temp Dewpoint Dewpoint Depression Visibility Wind Speed Wind Dir Waves Ship Positions

Girolata

Last reported at 2017-Apr-23 18:03 UTC. Time now 2017-Apr-24 03:32 UTC.
Position N 43°10' E 005°21'.

Length 177 m; beam 27 m.

Type: Passenger vessel. MMSI: 226245000.

Date/timePositionNaut miles runAvg speedWind from/ knotsBaromVisibWave heightAir tempDewpointWater temp
2017-Apr-23 18:03N 43°10' E 005°21'117.5
2017-Apr-23 18:00N 43°11' E 005°20'713.1
2017-Apr-23 17:30N 43°17' E 005°20'2 1.2
2017-Apr-23 16:02N 43°19' E 005°22'0 0.0
2017-Apr-23 15:59N 43°19' E 005°22'0 0.0
2017-Apr-23 14:23N 43°19' E 005°22'0 0.0
2017-Apr-23 13:05N 43°19' E 005°22'0 0.0
2017-Apr-23 08:41N 43°19' E 005°22'0 0.0
2017-Apr-23 08:11N 43°19' E 005°22'0 0.0
2017-Apr-23 07:59N 43°19' E 005°22'0 0.0
2017-Apr-23 06:41N 43°19' E 005°22'0 0.0
2017-Apr-23 06:29N 43°19' E 005°22'0 0.0
2017-Apr-23 05:59N 43°19' E 005°22'0 0.7
2017-Apr-23 05:29N 43°18' E 005°22'511.3
2017-Apr-23 05:00N 43°14' E 005°18'4515.4
2017-Apr-23 02:05N 42°49' E 006°09'45 1.7
2017-Apr-21 23:07N 42°27' E 007°02'8717.6
2017-Apr-21 18:11N 43°11' E 005°20'316.2
2017-Apr-21 18:00N 43°14' E 005°19'510.4
2017-Apr-21 17:29N 43°19' E 005°22'0 0.0
2017-Apr-21 11:11N 43°19' E 005°22'0 0.0
2017-Apr-21 10:59N 43°19' E 005°22'0 0.0
2017-Apr-21 10:29N 43°19' E 005°22'0 0.0
2017-Apr-21 04:48N 43°19' E 005°22'0 0.8
2017-Apr-21 04:30N 43°18' E 005°22'511.0
2017-Apr-21 04:00N 43°14' E 005°18'2 0.1
2017-Apr-19 17:54N 43°12' E 005°18'513.8
2017-Apr-19 17:31N 43°17' E 005°20'2 4.2
2017-Apr-19 17:00N 43°19' E 005°22'0 0.0
2017-Apr-19 16:27N 43°19' E 005°22'0 0.0
2017-Apr-19 16:00N 43°19' E 005°22'0 0.0
2017-Apr-19 15:27N 43°19' E 005°22'0 0.0
2017-Apr-19 14:54N 43°19' E 005°22'0 0.0
2017-Apr-19 14:30N 43°19' E 005°22'0 0.0
2017-Apr-19 13:21N 43°19' E 005°22'0 0.0
2017-Apr-19 13:00N 43°19' E 005°22'0 0.0
2017-Apr-19 12:24N 43°19' E 005°22'0 0.0
2017-Apr-19 12:00N 43°19' E 005°22'0 0.0
2017-Apr-19 11:27N 43°19' E 005°22'0 0.0
2017-Apr-19 10:48N 43°19' E 005°22'0 0.0
2017-Apr-19 10:30N 43°19' E 005°22'0 0.0
2017-Apr-19 09:48N 43°19' E 005°22'0 0.0
2017-Apr-19 09:27N 43°19' E 005°22'0 0.0
2017-Apr-19 08:48N 43°19' E 005°22'0 0.0
2017-Apr-19 08:30N 43°19' E 005°22'0 0.0
2017-Apr-19 07:09N 43°19' E 005°22'0 0.0
2017-Apr-19 06:57N 43°19' E 005°22'0 0.0
2017-Apr-19 06:27N 43°19' E 005°22'0 0.0
2017-Apr-19 06:00N 43°19' E 005°22'0 0.0
2017-Apr-19 05:30N 43°19' E 005°22'0 0.0
2017-Apr-19 05:01N 43°19' E 005°22'2 3.5
2017-Apr-19 04:31N 43°17' E 005°20'5 0.2
2017-Apr-17 17:49N 43°12' E 005°18'414.1
2017-Apr-17 17:30N 43°16' E 005°20'3 3.7
2017-Apr-17 16:46N 43°19' E 005°22'0 0.0
2017-Apr-17 07:31N 43°19' E 005°22'0 0.0
2017-Apr-17 07:01N 43°19' E 005°22'0 0.0
2017-Apr-17 06:58N 43°19' E 005°22'0 0.0
2017-Apr-17 06:19N 43°19' E 005°22'0 0.0
2017-Apr-17 05:50N 43°19' E 005°22'0 1.2
2017-Apr-17 05:30N 43°18' E 005°22'611.4
2017-Apr-17 05:00N 43°13' E 005°18'2 0.0
2017-Apr-15 17:49N 43°12' E 005°19'414.5
2017-Apr-15 17:31N 43°16' E 005°19'3 0.8
2017-Apr-15 13:42N 43°19' E 005°22'0 0.0
2017-Apr-15 13:24N 43°19' E 005°22'0 0.0
2017-Apr-15 05:21N 43°19' E 005°22'0 0.0
2017-Apr-15 04:59N 43°19' E 005°22'0 0.8
2017-Apr-15 04:30N 43°18' E 005°22'511.0
2017-Apr-15 04:00N 43°14' E 005°17'18 0.6
2017-Apr-13 19:12N 43°02' E 005°36'1717.2
2017-Apr-13 18:14N 43°12' E 005°18'  
Track history (hours):
 
Tides and Currents Weather Stations Pressure Air Temp Water Temp Dewpoint Dewpoint Depression Visibility Wind Speed Wind Dir Waves Ship Positions

Girolata

Last reported at 2017-Apr-23 18:03 UTC. Time now 2017-Apr-24 03:32 UTC.
Position N 43°10' E 005°21'.

Length 177 m; beam 27 m.

Type: Passenger vessel. MMSI: 226245000.

Date/timePositionNaut miles runAvg speedWind from/ knotsBaromVisibWave heightAir tempDewpointWater temp
2017-Apr-23 18:03N 43°10' E 005°21'117.5
2017-Apr-23 18:00N 43°11' E 005°20'713.1
2017-Apr-23 17:30N 43°17' E 005°20'2 1.2
2017-Apr-23 16:02N 43°19' E 005°22'0 0.0
2017-Apr-23 15:59N 43°19' E 005°22'0 0.0
2017-Apr-23 14:23N 43°19' E 005°22'0 0.0
2017-Apr-23 13:05N 43°19' E 005°22'0 0.0
2017-Apr-23 08:41N 43°19' E 005°22'0 0.0
2017-Apr-23 08:11N 43°19' E 005°22'0 0.0
2017-Apr-23 07:59N 43°19' E 005°22'0 0.0
2017-Apr-23 06:41N 43°19' E 005°22'0 0.0
2017-Apr-23 06:29N 43°19' E 005°22'0 0.0
2017-Apr-23 05:59N 43°19' E 005°22'0 0.7
2017-Apr-23 05:29N 43°18' E 005°22'511.3
2017-Apr-23 05:00N 43°14' E 005°18'4515.4
2017-Apr-23 02:05N 42°49' E 006°09'45 1.7
2017-Apr-21 23:07N 42°27' E 007°02'8717.6
2017-Apr-21 18:11N 43°11' E 005°20'316.2
2017-Apr-21 18:00N 43°14' E 005°19'510.4
2017-Apr-21 17:29N 43°19' E 005°22'0 0.0
2017-Apr-21 11:11N 43°19' E 005°22'0 0.0
2017-Apr-21 10:59N 43°19' E 005°22'0 0.0
2017-Apr-21 10:29N 43°19' E 005°22'0 0.0
2017-Apr-21 04:48N 43°19' E 005°22'0 0.8
2017-Apr-21 04:30N 43°18' E 005°22'511.0
2017-Apr-21 04:00N 43°14' E 005°18'2 0.1
2017-Apr-19 17:54N 43°12' E 005°18'513.8
2017-Apr-19 17:31N 43°17' E 005°20'2 4.2
2017-Apr-19 17:00N 43°19' E 005°22'0 0.0
2017-Apr-19 16:27N 43°19' E 005°22'0 0.0
2017-Apr-19 16:00N 43°19' E 005°22'0 0.0
2017-Apr-19 15:27N 43°19' E 005°22'0 0.0
2017-Apr-19 14:54N 43°19' E 005°22'0 0.0
2017-Apr-19 14:30N 43°19' E 005°22'0 0.0
2017-Apr-19 13:21N 43°19' E 005°22'0 0.0
2017-Apr-19 13:00N 43°19' E 005°22'0 0.0
2017-Apr-19 12:24N 43°19' E 005°22'0 0.0
2017-Apr-19 12:00N 43°19' E 005°22'0 0.0
2017-Apr-19 11:27N 43°19' E 005°22'0 0.0
2017-Apr-19 10:48N 43°19' E 005°22'0 0.0
2017-Apr-19 10:30N 43°19' E 005°22'0 0.0
2017-Apr-19 09:48N 43°19' E 005°22'0 0.0
2017-Apr-19 09:27N 43°19' E 005°22'0 0.0
2017-Apr-19 08:48N 43°19' E 005°22'0 0.0
2017-Apr-19 08:30N 43°19' E 005°22'0 0.0
2017-Apr-19 07:09N 43°19' E 005°22'0 0.0
2017-Apr-19 06:57N 43°19' E 005°22'0 0.0
2017-Apr-19 06:27N 43°19' E 005°22'0 0.0
2017-Apr-19 06:00N 43°19' E 005°22'0 0.0
2017-Apr-19 05:30N 43°19' E 005°22'0 0.0
2017-Apr-19 05:01N 43°19' E 005°22'2 3.5
2017-Apr-19 04:31N 43°17' E 005°20'5 0.2
2017-Apr-17 17:49N 43°12' E 005°18'414.1
2017-Apr-17 17:30N 43°16' E 005°20'3 3.7
2017-Apr-17 16:46N 43°19' E 005°22'0 0.0
2017-Apr-17 07:31N 43°19' E 005°22'0 0.0
2017-Apr-17 07:01N 43°19' E 005°22'0 0.0
2017-Apr-17 06:58N 43°19' E 005°22'0 0.0
2017-Apr-17 06:19N 43°19' E 005°22'0 0.0
2017-Apr-17 05:50N 43°19' E 005°22'0 1.2
2017-Apr-17 05:30N 43°18' E 005°22'611.4
2017-Apr-17 05:00N 43°13' E 005°18'2 0.0
2017-Apr-15 17:49N 43°12' E 005°19'414.5
2017-Apr-15 17:31N 43°16' E 005°19'3 0.8
2017-Apr-15 13:42N 43°19' E 005°22'0 0.0
2017-Apr-15 13:24N 43°19' E 005°22'0 0.0
2017-Apr-15 05:21N 43°19' E 005°22'0 0.0
2017-Apr-15 04:59N 43°19' E 005°22'0 0.8
2017-Apr-15 04:30N 43°18' E 005°22'511.0
2017-Apr-15 04:00N 43°14' E 005°17'18 0.6
2017-Apr-13 19:12N 43°02' E 005°36'1717.2
2017-Apr-13 18:14N 43°12' E 005°18'  

Dump ship's entire track history